sensor_id;sensor_type;location;lat;lon;timestamp;temperature;humidity
66144;SHT31;52947;50.842;6.084;2023-02-27T00:00:19;-1.07;77.99
66144;SHT31;52947;50.842;6.084;2023-02-27T00:02:49;-1.13;78.26
66144;SHT31;52947;50.842;6.084;2023-02-27T00:05:19;-1.16;78.44
66144;SHT31;52947;50.842;6.084;2023-02-27T00:07:48;-1.02;78.23
66144;SHT31;52947;50.842;6.084;2023-02-27T00:10:17;-1.07;78.20
66144;SHT31;52947;50.842;6.084;2023-02-27T00:12:44;-1.27;78.94
66144;SHT31;52947;50.842;6.084;2023-02-27T00:15:14;-1.15;79.32
66144;SHT31;52947;50.842;6.084;2023-02-27T00:17:43;-1.07;79.06
66144;SHT31;52947;50.842;6.084;2023-02-27T00:20:12;-0.95;78.63
66144;SHT31;52947;50.842;6.084;2023-02-27T00:22:43;-0.88;78.43
66144;SHT31;52947;50.842;6.084;2023-02-27T00:25:12;-0.85;78.25
66144;SHT31;52947;50.842;6.084;2023-02-27T00:27:40;-0.93;78.64
66144;SHT31;52947;50.842;6.084;2023-02-27T00:30:10;-0.97;78.93
66144;SHT31;52947;50.842;6.084;2023-02-27T00:32:38;-0.95;78.89
66144;SHT31;52947;50.842;6.084;2023-02-27T00:35:09;-0.81;78.40
66144;SHT31;52947;50.842;6.084;2023-02-27T00:37:38;-0.78;78.33
66144;SHT31;52947;50.842;6.084;2023-02-27T00:40:09;-0.84;78.73
66144;SHT31;52947;50.842;6.084;2023-02-27T00:42:37;-0.86;78.91
66144;SHT31;52947;50.842;6.084;2023-02-27T00:45:07;-0.89;79.03
66144;SHT31;52947;50.842;6.084;2023-02-27T00:47:35;-1.00;79.41
66144;SHT31;52947;50.842;6.084;2023-02-27T00:50:03;-1.12;79.82
66144;SHT31;52947;50.842;6.084;2023-02-27T00:52:31;-1.25;80.24
66144;SHT31;52947;50.842;6.084;2023-02-27T00:55:00;-1.30;80.65
66144;SHT31;52947;50.842;6.084;2023-02-27T00:57:29;-1.19;80.66
66144;SHT31;52947;50.842;6.084;2023-02-27T00:59:57;-1.43;80.87
66144;SHT31;52947;50.842;6.084;2023-02-27T01:02:25;-1.30;81.11
66144;SHT31;52947;50.842;6.084;2023-02-27T01:04:54;-1.30;80.91
66144;SHT31;52947;50.842;6.084;2023-02-27T01:07:22;-1.35;80.99
66144;SHT31;52947;50.842;6.084;2023-02-27T01:09:52;-1.30;80.99
66144;SHT31;52947;50.842;6.084;2023-02-27T01:12:20;-1.19;80.78
66144;SHT31;52947;50.842;6.084;2023-02-27T01:14:49;-1.25;80.80
66144;SHT31;52947;50.842;6.084;2023-02-27T01:17:17;-1.32;80.91
66144;SHT31;52947;50.842;6.084;2023-02-27T01:19:45;-1.33;81.24
66144;SHT31;52947;50.842;6.084;2023-02-27T01:22:13;-1.40;81.43
66144;SHT31;52947;50.842;6.084;2023-02-27T01:24:41;-1.33;81.48
66144;SHT31;52947;50.842;6.084;2023-02-27T01:27:09;-1.39;81.58
66144;SHT31;52947;50.842;6.084;2023-02-27T01:29:37;-1.35;81.52
66144;SHT31;52947;50.842;6.084;2023-02-27T01:32:06;-1.32;81.48
66144;SHT31;52947;50.842;6.084;2023-02-27T01:34:34;-1.26;81.24
66144;SHT31;52947;50.842;6.084;2023-02-27T01:37:02;-1.35;81.39
66144;SHT31;52947;50.842;6.084;2023-02-27T01:39:30;-1.32;81.72
66144;SHT31;52947;50.842;6.084;2023-02-27T01:41:59;-1.39;81.83
66144;SHT31;52947;50.842;6.084;2023-02-27T01:44:29;-1.46;81.91
66144;SHT31;52947;50.842;6.084;2023-02-27T01:46:57;-1.50;82.27
66144;SHT31;52947;50.842;6.084;2023-02-27T01:49:31;-1.46;82.25
66144;SHT31;52947;50.842;6.084;2023-02-27T01:52:04;-1.46;82.24
66144;SHT31;52947;50.842;6.084;2023-02-27T01:54:34;-1.53;82.27
66144;SHT31;52947;50.842;6.084;2023-02-27T01:57:03;-1.51;82.55
66144;SHT31;52947;50.842;6.084;2023-02-27T01:59:33;-1.54;82.67
66144;SHT31;52947;50.842;6.084;2023-02-27T02:02:02;-1.58;82.49
66144;SHT31;52947;50.842;6.084;2023-02-27T02:04:37;-1.53;82.59
66144;SHT31;52947;50.842;6.084;2023-02-27T02:07:07;-1.57;82.75
66144;SHT31;52947;50.842;6.084;2023-02-27T02:09:42;-1.53;82.74
66144;SHT31;52947;50.842;6.084;2023-02-27T02:12:13;-1.48;82.89
66144;SHT31;52947;50.842;6.084;2023-02-27T02:14:42;-1.60;82.57
66144;SHT31;52947;50.842;6.084;2023-02-27T02:17:15;-1.66;82.85
66144;SHT31;52947;50.842;6.084;2023-02-27T02:20:13;-1.75;83.00
66144;SHT31;52947;50.842;6.084;2023-02-27T02:23:07;-1.78;83.28
66144;SHT31;52947;50.842;6.084;2023-02-27T02:29:12;-1.81;83.72
66144;SHT31;52947;50.842;6.084;2023-02-27T02:32:11;-1.72;83.66
66144;SHT31;52947;50.842;6.084;2023-02-27T02:35:29;-1.68;83.43
66144;SHT31;52947;50.842;6.084;2023-02-27T02:38:22;-1.78;83.33
66144;SHT31;52947;50.842;6.084;2023-02-27T02:40:56;-1.84;83.58
66144;SHT31;52947;50.842;6.084;2023-02-27T02:43:29;-1.78;83.87
66144;SHT31;52947;50.842;6.084;2023-02-27T02:46:01;-1.81;84.03
66144;SHT31;52947;50.842;6.084;2023-02-27T02:48:34;-1.92;83.92
66144;SHT31;52947;50.842;6.084;2023-02-27T02:51:12;-1.97;84.31
66144;SHT31;52947;50.842;6.084;2023-02-27T02:53:49;-1.91;84.21
66144;SHT31;52947;50.842;6.084;2023-02-27T02:56:22;-1.88;84.06
66144;SHT31;52947;50.842;6.084;2023-02-27T02:58:55;-1.84;84.00
66144;SHT31;52947;50.842;6.084;2023-02-27T03:01:28;-1.98;83.99
66144;SHT31;52947;50.842;6.084;2023-02-27T03:04:03;-1.98;84.50
66144;SHT31;52947;50.842;6.084;2023-02-27T03:06:36;-1.89;84.29
66144;SHT31;52947;50.842;6.084;2023-02-27T03:09:09;-1.91;84.24
66144;SHT31;52947;50.842;6.084;2023-02-27T03:11:42;-1.88;84.14
66144;SHT31;52947;50.842;6.084;2023-02-27T03:14:13;-1.94;83.98
66144;SHT31;52947;50.842;6.084;2023-02-27T03:16:46;-2.02;84.64
66144;SHT31;52947;50.842;6.084;2023-02-27T03:19:21;-2.12;84.73
66144;SHT31;52947;50.842;6.084;2023-02-27T03:21:53;-2.19;85.11
66144;SHT31;52947;50.842;6.084;2023-02-27T03:24:26;-2.26;85.35
66144;SHT31;52947;50.842;6.084;2023-02-27T03:26:56;-2.09;85.13
66144;SHT31;52947;50.842;6.084;2023-02-27T03:29:30;-2.15;85.10
66144;SHT31;52947;50.842;6.084;2023-02-27T03:32:08;-2.19;85.10
66144;SHT31;52947;50.842;6.084;2023-02-27T03:34:40;-2.23;85.46
66144;SHT31;52947;50.842;6.084;2023-02-27T03:37:19;-2.28;85.55
66144;SHT31;52947;50.842;6.084;2023-02-27T03:39:52;-2.18;85.50
66144;SHT31;52947;50.842;6.084;2023-02-27T03:42:30;-2.29;85.53
66144;SHT31;52947;50.842;6.084;2023-02-27T03:45:14;-2.26;85.73
66144;SHT31;52947;50.842;6.084;2023-02-27T03:47:44;-2.28;85.87
66144;SHT31;52947;50.842;6.084;2023-02-27T03:50:13;-2.43;85.70
66144;SHT31;52947;50.842;6.084;2023-02-27T03:52:42;-2.48;86.42
66144;SHT31;52947;50.842;6.084;2023-02-27T03:55:14;-2.54;86.45
66144;SHT31;52947;50.842;6.084;2023-02-27T03:57:45;-2.71;86.35
66144;SHT31;52947;50.842;6.084;2023-02-27T04:00:16;-2.80;87.05
66144;SHT31;52947;50.842;6.084;2023-02-27T04:02:46;-3.05;86.72
66144;SHT31;52947;50.842;6.084;2023-02-27T04:05:21;-3.04;87.80
66144;SHT31;52947;50.842;6.084;2023-02-27T04:08:08;-3.08;87.84
66144;SHT31;52947;50.842;6.084;2023-02-27T04:10:55;-2.33;93.85
66144;SHT31;52947;50.842;6.084;2023-02-27T04:13:51;-0.68;92.29
66144;SHT31;52947;50.842;6.084;2023-02-27T04:16:45;-0.38;90.04
66144;SHT31;52947;50.842;6.084;2023-02-27T04:19:28;-0.09;87.11
66144;SHT31;52947;50.842;6.084;2023-02-27T04:22:07;0.58;84.76
66144;SHT31;52947;50.842;6.084;2023-02-27T04:24:49;0.54;83.81
66144;SHT31;52947;50.842;6.084;2023-02-27T04:27:25;1.10;85.85
66144;SHT31;52947;50.842;6.084;2023-02-27T04:29:57;0.62;84.51
66144;SHT31;52947;50.842;6.084;2023-02-27T04:32:34;0.59;82.49
66144;SHT31;52947;50.842;6.084;2023-02-27T04:35:05;0.90;84.61
66144;SHT31;52947;50.842;6.084;2023-02-27T04:37:36;0.78;82.31
66144;SHT31;52947;50.842;6.084;2023-02-27T04:40:11;0.79;80.27
66144;SHT31;52947;50.842;6.084;2023-02-27T04:42:45;0.68;80.39
66144;SHT31;52947;50.842;6.084;2023-02-27T04:45:17;0.29;82.52
66144;SHT31;52947;50.842;6.084;2023-02-27T04:47:51;0.08;81.84
66144;SHT31;52947;50.842;6.084;2023-02-27T04:50:24;-0.20;81.73
66144;SHT31;52947;50.842;6.084;2023-02-27T04:52:55;-0.33;83.49
66144;SHT31;52947;50.842;6.084;2023-02-27T04:55:26;-0.34;81.97
66144;SHT31;52947;50.842;6.084;2023-02-27T04:58:01;0.04;85.85
66144;SHT31;52947;50.842;6.084;2023-02-27T05:00:30;-0.04;84.58
66144;SHT31;52947;50.842;6.084;2023-02-27T05:03:06;0.13;81.17
66144;SHT31;52947;50.842;6.084;2023-02-27T05:05:37;-0.20;82.57
66144;SHT31;52947;50.842;6.084;2023-02-27T05:08:09;-0.20;82.37
66144;SHT31;52947;50.842;6.084;2023-02-27T05:10:45;-0.07;84.52
66144;SHT31;52947;50.842;6.084;2023-02-27T05:13:18;0.73;87.72
66144;SHT31;52947;50.842;6.084;2023-02-27T05:15:49;0.68;84.65
66144;SHT31;52947;50.842;6.084;2023-02-27T05:18:20;1.24;86.27
66144;SHT31;52947;50.842;6.084;2023-02-27T05:20:55;2.12;84.33
66144;SHT31;52947;50.842;6.084;2023-02-27T05:23:33;1.83;79.26
66144;SHT31;52947;50.842;6.084;2023-02-27T05:26:12;1.46;82.58
66144;SHT31;52947;50.842;6.084;2023-02-27T05:28:49;2.43;82.93
66144;SHT31;52947;50.842;6.084;2023-02-27T05:31:23;2.94;82.11
66144;SHT31;52947;50.842;6.084;2023-02-27T05:33:56;3.21;80.85
66144;SHT31;52947;50.842;6.084;2023-02-27T05:36:29;3.16;79.86
66144;SHT31;52947;50.842;6.084;2023-02-27T05:39:00;2.32;76.78
66144;SHT31;52947;50.842;6.084;2023-02-27T05:41:32;1.27;79.03
66144;SHT31;52947;50.842;6.084;2023-02-27T05:44:06;0.70;80.76
66144;SHT31;52947;50.842;6.084;2023-02-27T05:46:38;0.28;80.65
66144;SHT31;52947;50.842;6.084;2023-02-27T05:49:11;-0.14;80.52
66144;SHT31;52947;50.842;6.084;2023-02-27T05:51:43;0.06;82.35
66144;SHT31;52947;50.842;6.084;2023-02-27T05:54:17;-0.20;81.48
66144;SHT31;52947;50.842;6.084;2023-02-27T05:56:48;-0.44;82.56
66144;SHT31;52947;50.842;6.084;2023-02-27T05:59:24;-0.25;83.05
66144;SHT31;52947;50.842;6.084;2023-02-27T06:01:53;-0.65;82.50
66144;SHT31;52947;50.842;6.084;2023-02-27T06:04:21;-0.37;86.44
66144;SHT31;52947;50.842;6.084;2023-02-27T06:06:49;-0.13;85.23
66144;SHT31;52947;50.842;6.084;2023-02-27T06:09:18;0.11;85.45
66144;SHT31;52947;50.842;6.084;2023-02-27T06:11:46;0.44;84.14
66144;SHT31;52947;50.842;6.084;2023-02-27T06:14:14;0.21;83.55
66144;SHT31;52947;50.842;6.084;2023-02-27T06:16:43;0.40;84.98
66144;SHT31;52947;50.842;6.084;2023-02-27T06:19:11;-0.30;82.70
66144;SHT31;52947;50.842;6.084;2023-02-27T06:21:39;-0.62;80.92
66144;SHT31;52947;50.842;6.084;2023-02-27T06:24:07;-1.26;82.76
66144;SHT31;52947;50.842;6.084;2023-02-27T06:26:35;-1.75;83.59
66144;SHT31;52947;50.842;6.084;2023-02-27T06:29:03;-2.19;83.72
66144;SHT31;52947;50.842;6.084;2023-02-27T06:31:31;-2.63;84.23
66144;SHT31;52947;50.842;6.084;2023-02-27T06:34:00;-2.91;85.19
66144;SHT31;52947;50.842;6.084;2023-02-27T06:36:28;-3.11;86.32
66144;SHT31;52947;50.842;6.084;2023-02-27T06:38:56;-3.05;87.17
66144;SHT31;52947;50.842;6.084;2023-02-27T06:41:24;-3.08;87.36
66144;SHT31;52947;50.842;6.084;2023-02-27T06:43:52;-2.83;87.37
66144;SHT31;52947;50.842;6.084;2023-02-27T06:46:21;-2.70;86.65
66144;SHT31;52947;50.842;6.084;2023-02-27T06:48:49;-2.35;86.03
66144;SHT31;52947;50.842;6.084;2023-02-27T06:51:18;-1.72;85.31
66144;SHT31;52947;50.842;6.084;2023-02-27T06:53:46;-1.27;84.46
66144;SHT31;52947;50.842;6.084;2023-02-27T06:56:14;-1.00;83.49
66144;SHT31;52947;50.842;6.084;2023-02-27T06:58:42;-0.95;82.69
66144;SHT31;52947;50.842;6.084;2023-02-27T07:01:09;-0.96;82.76
66144;SHT31;52947;50.842;6.084;2023-02-27T07:03:38;-0.86;82.69
66144;SHT31;52947;50.842;6.084;2023-02-27T07:06:07;-0.37;81.39
66144;SHT31;52947;50.842;6.084;2023-02-27T07:08:36;0.55;78.99
66144;SHT31;52947;50.842;6.084;2023-02-27T07:11:24;1.75;75.50
66144;SHT31;52947;50.842;6.084;2023-02-27T07:13:51;2.63;72.85
66144;SHT31;52947;50.842;6.084;2023-02-27T07:16:19;3.42;70.13
66144;SHT31;52947;50.842;6.084;2023-02-27T07:18:47;4.31;67.71
66144;SHT31;52947;50.842;6.084;2023-02-27T07:21:15;4.97;65.55
66144;SHT31;52947;50.842;6.084;2023-02-27T07:23:44;5.68;63.71
66144;SHT31;52947;50.842;6.084;2023-02-27T07:26:12;6.34;61.67
66144;SHT31;52947;50.842;6.084;2023-02-27T07:28:40;6.97;60.05
66144;SHT31;52947;50.842;6.084;2023-02-27T07:31:08;7.58;57.85
66144;SHT31;52947;50.842;6.084;2023-02-27T07:33:36;7.87;56.34
66144;SHT31;52947;50.842;6.084;2023-02-27T07:36:04;8.30;55.47
66144;SHT31;52947;50.842;6.084;2023-02-27T07:38:32;8.93;54.68
66144;SHT31;52947;50.842;6.084;2023-02-27T07:41:01;9.22;53.08
66144;SHT31;52947;50.842;6.084;2023-02-27T07:43:29;9.24;52.78
66144;SHT31;52947;50.842;6.084;2023-02-27T07:45:57;9.31;51.96
66144;SHT31;52947;50.842;6.084;2023-02-27T07:48:25;9.99;50.58
66144;SHT31;52947;50.842;6.084;2023-02-27T07:50:53;9.97;50.26
66144;SHT31;52947;50.842;6.084;2023-02-27T07:53:21;10.45;49.00
66144;SHT31;52947;50.842;6.084;2023-02-27T07:55:48;10.83;48.14
66144;SHT31;52947;50.842;6.084;2023-02-27T07:58:18;11.03;47.63
66144;SHT31;52947;50.842;6.084;2023-02-27T08:00:46;11.57;46.76
66144;SHT31;52947;50.842;6.084;2023-02-27T08:03:14;11.85;45.88
66144;SHT31;52947;50.842;6.084;2023-02-27T08:05:42;12.24;45.36
66144;SHT31;52947;50.842;6.084;2023-02-27T08:08:10;12.45;44.96
66144;SHT31;52947;50.842;6.084;2023-02-27T08:10:38;12.91;44.39
66144;SHT31;52947;50.842;6.084;2023-02-27T08:13:05;13.08;43.59
66144;SHT31;52947;50.842;6.084;2023-02-27T08:15:35;13.30;43.15
66144;SHT31;52947;50.842;6.084;2023-02-27T08:18:03;13.45;42.59
66144;SHT31;52947;50.842;6.084;2023-02-27T08:20:30;13.50;42.70
66144;SHT31;52947;50.842;6.084;2023-02-27T08:22:58;13.06;42.90
66144;SHT31;52947;50.842;6.084;2023-02-27T08:25:26;12.64;43.61
66144;SHT31;52947;50.842;6.084;2023-02-27T08:27:55;13.06;43.36
66144;SHT31;52947;50.842;6.084;2023-02-27T08:30:23;13.25;42.66
66144;SHT31;52947;50.842;6.084;2023-02-27T08:32:52;12.27;43.89
66144;SHT31;52947;50.842;6.084;2023-02-27T08:35:21;13.33;42.42
66144;SHT31;52947;50.842;6.084;2023-02-27T08:37:49;13.18;42.97
66144;SHT31;52947;50.842;6.084;2023-02-27T08:40:17;13.04;42.39
66144;SHT31;52947;50.842;6.084;2023-02-27T08:42:45;13.23;42.00
66144;SHT31;52947;50.842;6.084;2023-02-27T08:45:13;13.93;40.63
66144;SHT31;52947;50.842;6.084;2023-02-27T08:47:42;13.91;41.08
66144;SHT31;52947;50.842;6.084;2023-02-27T08:50:12;14.15;40.85
66144;SHT31;52947;50.842;6.084;2023-02-27T08:52:39;13.05;41.53
66144;SHT31;52947;50.842;6.084;2023-02-27T08:55:08;11.61;43.94
66144;SHT31;52947;50.842;6.084;2023-02-27T08:57:36;10.48;47.19
66144;SHT31;52947;50.842;6.084;2023-02-27T09:00:05;11.71;45.10
66144;SHT31;52947;50.842;6.084;2023-02-27T09:02:33;12.45;49.65
66144;SHT31;52947;50.842;6.084;2023-02-27T09:05:01;11.32;49.03
66144;SHT31;52947;50.842;6.084;2023-02-27T09:07:31;12.51;45.55
66144;SHT31;52947;50.842;6.084;2023-02-27T09:09:59;11.20;46.45
66144;SHT31;52947;50.842;6.084;2023-02-27T09:12:27;10.64;47.37
66144;SHT31;52947;50.842;6.084;2023-02-27T09:14:55;11.27;45.68
66144;SHT31;52947;50.842;6.084;2023-02-27T09:17:23;10.97;46.70
66144;SHT31;52947;50.842;6.084;2023-02-27T09:19:51;8.65;49.64
66144;SHT31;52947;50.842;6.084;2023-02-27T09:22:23;8.96;50.54
66144;SHT31;52947;50.842;6.084;2023-02-27T09:24:52;8.75;50.37
66144;SHT31;52947;50.842;6.084;2023-02-27T09:27:20;8.82;50.75
66144;SHT31;52947;50.842;6.084;2023-02-27T09:29:49;9.62;48.21
66144;SHT31;52947;50.842;6.084;2023-02-27T09:32:21;9.68;49.45
66144;SHT31;52947;50.842;6.084;2023-02-27T09:34:49;9.74;47.99
66144;SHT31;52947;50.842;6.084;2023-02-27T09:37:17;9.00;50.67
66144;SHT31;52947;50.842;6.084;2023-02-27T09:39:46;10.36;47.51
66144;SHT31;52947;50.842;6.084;2023-02-27T09:42:17;10.56;47.02
66144;SHT31;52947;50.842;6.084;2023-02-27T09:44:47;10.11;46.38
66144;SHT31;52947;50.842;6.084;2023-02-27T09:47:20;10.28;47.45
66144;SHT31;52947;50.842;6.084;2023-02-27T09:49:58;9.13;49.54
66144;SHT31;52947;50.842;6.084;2023-02-27T09:52:29;9.29;47.75
66144;SHT31;52947;50.842;6.084;2023-02-27T09:54:57;9.40;48.46
66144;SHT31;52947;50.842;6.084;2023-02-27T09:57:38;8.62;48.81
66144;SHT31;52947;50.842;6.084;2023-02-27T10:00:19;9.68;46.32
66144;SHT31;52947;50.842;6.084;2023-02-27T10:02:59;8.97;47.18
66144;SHT31;52947;50.842;6.084;2023-02-27T10:05:34;9.52;47.78
66144;SHT31;52947;50.842;6.084;2023-02-27T10:08:07;9.97;46.60
66144;SHT31;52947;50.842;6.084;2023-02-27T10:10:44;10.70;44.55
66144;SHT31;52947;50.842;6.084;2023-02-27T10:13:32;10.63;43.81
66144;SHT31;52947;50.842;6.084;2023-02-27T10:16:02;10.79;43.88
66144;SHT31;52947;50.842;6.084;2023-02-27T10:18:32;10.55;44.22
66144;SHT31;52947;50.842;6.084;2023-02-27T10:21:05;9.36;47.92
66144;SHT31;52947;50.842;6.084;2023-02-27T10:23:38;9.60;46.60
66144;SHT31;52947;50.842;6.084;2023-02-27T10:26:12;8.64;48.49
66144;SHT31;52947;50.842;6.084;2023-02-27T10:28:46;9.48;47.03
66144;SHT31;52947;50.842;6.084;2023-02-27T10:31:14;7.96;50.98
66144;SHT31;52947;50.842;6.084;2023-02-27T10:33:46;9.89;47.62
66144;SHT31;52947;50.842;6.084;2023-02-27T10:36:15;11.28;43.64
66144;SHT31;52947;50.842;6.084;2023-02-27T10:39:02;9.95;43.84
66144;SHT31;52947;50.842;6.084;2023-02-27T10:41:31;10.80;44.04
66144;SHT31;52947;50.842;6.084;2023-02-27T10:44:01;9.60;45.64
66144;SHT31;52947;50.842;6.084;2023-02-27T10:46:29;9.98;46.54
66144;SHT31;52947;50.842;6.084;2023-02-27T10:48:58;9.68;46.31
66144;SHT31;52947;50.842;6.084;2023-02-27T10:51:29;9.12;48.18
66144;SHT31;52947;50.842;6.084;2023-02-27T10:54:19;9.77;47.78
66144;SHT31;52947;50.842;6.084;2023-02-27T10:56:50;7.62;50.35
66144;SHT31;52947;50.842;6.084;2023-02-27T10:59:22;8.78;49.53
66144;SHT31;52947;50.842;6.084;2023-02-27T11:01:53;9.97;47.35
66144;SHT31;52947;50.842;6.084;2023-02-27T11:04:28;10.39;46.41
66144;SHT31;52947;50.842;6.084;2023-02-27T11:06:57;11.30;44.36
66144;SHT31;52947;50.842;6.084;2023-02-27T11:09:27;11.04;44.21
66144;SHT31;52947;50.842;6.084;2023-02-27T11:12:09;9.20;49.29
66144;SHT31;52947;50.842;6.084;2023-02-27T11:14:49;9.07;48.08
66144;SHT31;52947;50.842;6.084;2023-02-27T11:17:24;8.97;50.29
66144;SHT31;52947;50.842;6.084;2023-02-27T11:19:55;8.92;50.62
66144;SHT31;52947;50.842;6.084;2023-02-27T11:22:25;8.44;49.51
66144;SHT31;52947;50.842;6.084;2023-02-27T11:25:18;7.87;50.32
66144;SHT31;52947;50.842;6.084;2023-02-27T11:27:47;7.31;53.14
66144;SHT31;52947;50.842;6.084;2023-02-27T11:30:25;7.15;53.86
66144;SHT31;52947;50.842;6.084;2023-02-27T11:32:55;7.73;52.86
66144;SHT31;52947;50.842;6.084;2023-02-27T11:35:25;8.13;51.34
66144;SHT31;52947;50.842;6.084;2023-02-27T11:37:56;8.38;50.94
66144;SHT31;52947;50.842;6.084;2023-02-27T11:40:28;6.39;56.37
66144;SHT31;52947;50.842;6.084;2023-02-27T11:43:01;6.32;54.84
66144;SHT31;52947;50.842;6.084;2023-02-27T11:45:33;6.12;56.17
66144;SHT31;52947;50.842;6.084;2023-02-27T11:48:25;8.08;52.28
66144;SHT31;52947;50.842;6.084;2023-02-27T11:51:08;8.13;51.69
66144;SHT31;52947;50.842;6.084;2023-02-27T11:54:05;6.40;56.04
66144;SHT31;52947;50.842;6.084;2023-02-27T11:56:36;7.84;54.06
66144;SHT31;52947;50.842;6.084;2023-02-27T11:59:14;8.92;51.18
66144;SHT31;52947;50.842;6.084;2023-02-27T12:01:48;6.70;57.53
66144;SHT31;52947;50.842;6.084;2023-02-27T12:04:21;5.67;57.91
66144;SHT31;52947;50.842;6.084;2023-02-27T12:06:54;5.55;59.70
66144;SHT31;52947;50.842;6.084;2023-02-27T12:09:33;5.55;58.89
66144;SHT31;52947;50.842;6.084;2023-02-27T12:12:06;6.36;57.89
66144;SHT31;52947;50.842;6.084;2023-02-27T12:14:42;5.39;59.24
66144;SHT31;52947;50.842;6.084;2023-02-27T12:17:16;7.61;54.94
66144;SHT31;52947;50.842;6.084;2023-02-27T12:19:59;8.04;53.71
66144;SHT31;52947;50.842;6.084;2023-02-27T12:22:30;8.37;52.87
66144;SHT31;52947;50.842;6.084;2023-02-27T12:25:01;6.66;56.62
66144;SHT31;52947;50.842;6.084;2023-02-27T12:27:40;7.45;55.00
66144;SHT31;52947;50.842;6.084;2023-02-27T12:30:15;7.31;55.14
66144;SHT31;52947;50.842;6.084;2023-02-27T12:32:49;5.67;56.91
66144;SHT31;52947;50.842;6.084;2023-02-27T12:35:21;4.78;60.68
66144;SHT31;52947;50.842;6.084;2023-02-27T12:37:50;5.22;59.93
66144;SHT31;52947;50.842;6.084;2023-02-27T12:40:23;6.43;57.02
66144;SHT31;52947;50.842;6.084;2023-02-27T12:43:09;6.73;56.21
66144;SHT31;52947;50.842;6.084;2023-02-27T12:45:57;6.80;55.10
66144;SHT31;52947;50.842;6.084;2023-02-27T12:48:44;7.66;53.29
66144;SHT31;52947;50.842;6.084;2023-02-27T12:51:25;7.98;51.82
66144;SHT31;52947;50.842;6.084;2023-02-27T12:56:58;5.23;56.03
66144;SHT31;52947;50.842;6.084;2023-02-27T12:59:39;5.50;54.26
66144;SHT31;52947;50.842;6.084;2023-02-27T13:02:26;6.84;53.25
66144;SHT31;52947;50.842;6.084;2023-02-27T13:05:02;7.38;52.81
66144;SHT31;52947;50.842;6.084;2023-02-27T13:07:39;7.25;53.07
66144;SHT31;52947;50.842;6.084;2023-02-27T13:10:12;7.15;52.70
66144;SHT31;52947;50.842;6.084;2023-02-27T13:12:47;6.98;53.76
66144;SHT31;52947;50.842;6.084;2023-02-27T13:15:21;7.38;52.94
66144;SHT31;52947;50.842;6.084;2023-02-27T13:17:53;7.18;53.80
66144;SHT31;52947;50.842;6.084;2023-02-27T13:20:31;6.53;54.66
66144;SHT31;52947;50.842;6.084;2023-02-27T13:23:11;6.39;54.18
66144;SHT31;52947;50.842;6.084;2023-02-27T13:25:44;5.33;56.45
66144;SHT31;52947;50.842;6.084;2023-02-27T13:28:16;5.36;57.18
66144;SHT31;52947;50.842;6.084;2023-02-27T13:30:55;5.84;55.78
66144;SHT31;52947;50.842;6.084;2023-02-27T13:33:30;5.99;55.78
66144;SHT31;52947;50.842;6.084;2023-02-27T13:36:07;6.13;55.50
66144;SHT31;52947;50.842;6.084;2023-02-27T13:38:44;6.50;54.03
66144;SHT31;52947;50.842;6.084;2023-02-27T13:41:35;6.60;55.18
66144;SHT31;52947;50.842;6.084;2023-02-27T13:47:46;6.18;54.86
66144;SHT31;52947;50.842;6.084;2023-02-27T13:50:47;6.29;55.85
66144;SHT31;52947;50.842;6.084;2023-02-27T13:53:20;6.52;56.49
66144;SHT31;52947;50.842;6.084;2023-02-27T13:55:51;6.42;55.74
66144;SHT31;52947;50.842;6.084;2023-02-27T13:58:22;5.65;57.31
66144;SHT31;52947;50.842;6.084;2023-02-27T14:00:55;5.52;58.54
66144;SHT31;52947;50.842;6.084;2023-02-27T14:03:25;5.15;58.72
66144;SHT31;52947;50.842;6.084;2023-02-27T14:05:56;5.34;58.02
66144;SHT31;52947;50.842;6.084;2023-02-27T14:08:27;5.29;59.15
66144;SHT31;52947;50.842;6.084;2023-02-27T14:10:58;5.44;58.57
66144;SHT31;52947;50.842;6.084;2023-02-27T14:14:00;5.74;57.37
66144;SHT31;52947;50.842;6.084;2023-02-27T14:16:52;5.33;57.62
66144;SHT31;52947;50.842;6.084;2023-02-27T14:22:40;4.92;59.03
66144;SHT31;52947;50.842;6.084;2023-02-27T14:25:32;4.83;58.46
66144;SHT31;52947;50.842;6.084;2023-02-27T14:28:01;4.89;58.03
66144;SHT31;52947;50.842;6.084;2023-02-27T14:30:34;4.55;58.04
66144;SHT31;52947;50.842;6.084;2023-02-27T14:33:19;4.42;58.42
66144;SHT31;52947;50.842;6.084;2023-02-27T14:36:07;4.88;58.20
66144;SHT31;52947;50.842;6.084;2023-02-27T14:38:36;4.58;57.76
66144;SHT31;52947;50.842;6.084;2023-02-27T14:41:13;4.86;57.49
66144;SHT31;52947;50.842;6.084;2023-02-27T14:43:44;5.13;57.32
66144;SHT31;52947;50.842;6.084;2023-02-27T14:46:22;5.19;56.99
66144;SHT31;52947;50.842;6.084;2023-02-27T14:48:54;4.97;57.52
66144;SHT31;52947;50.842;6.084;2023-02-27T14:51:24;4.55;58.09
66144;SHT31;52947;50.842;6.084;2023-02-27T14:54:04;4.48;58.05
66144;SHT31;52947;50.842;6.084;2023-02-27T14:56:34;4.30;58.55
66144;SHT31;52947;50.842;6.084;2023-02-27T14:59:01;4.42;59.41
66144;SHT31;52947;50.842;6.084;2023-02-27T15:01:34;4.54;59.04
66144;SHT31;52947;50.842;6.084;2023-02-27T15:04:03;4.72;58.90
66144;SHT31;52947;50.842;6.084;2023-02-27T15:06:35;4.62;57.70
66144;SHT31;52947;50.842;6.084;2023-02-27T15:09:19;4.62;58.21
66144;SHT31;52947;50.842;6.084;2023-02-27T15:11:50;4.49;57.97
66144;SHT31;52947;50.842;6.084;2023-02-27T15:14:32;4.34;58.62
66144;SHT31;52947;50.842;6.084;2023-02-27T15:17:02;4.30;58.70
66144;SHT31;52947;50.842;6.084;2023-02-27T15:19:31;4.31;59.22
66144;SHT31;52947;50.842;6.084;2023-02-27T15:22:00;4.37;60.12
66144;SHT31;52947;50.842;6.084;2023-02-27T15:24:32;4.37;60.64
66144;SHT31;52947;50.842;6.084;2023-02-27T15:27:19;4.30;60.63
66144;SHT31;52947;50.842;6.084;2023-02-27T15:29:49;4.17;61.01
66144;SHT31;52947;50.842;6.084;2023-02-27T15:32:23;4.16;61.17
66144;SHT31;52947;50.842;6.084;2023-02-27T15:34:52;4.18;60.54
66144;SHT31;52947;50.842;6.084;2023-02-27T15:37:22;4.21;60.32
66144;SHT31;52947;50.842;6.084;2023-02-27T15:39:52;4.16;60.42
66144;SHT31;52947;50.842;6.084;2023-02-27T15:42:24;4.08;60.53
66144;SHT31;52947;50.842;6.084;2023-02-27T15:44:53;4.08;60.89
66144;SHT31;52947;50.842;6.084;2023-02-27T15:47:23;4.10;60.58
66144;SHT31;52947;50.842;6.084;2023-02-27T15:49:57;4.08;60.36
66144;SHT31;52947;50.842;6.084;2023-02-27T15:52:28;4.16;60.79
66144;SHT31;52947;50.842;6.084;2023-02-27T15:55:01;4.31;61.42
66144;SHT31;52947;50.842;6.084;2023-02-27T15:57:31;4.34;62.03
66144;SHT31;52947;50.842;6.084;2023-02-27T15:59:59;4.41;61.82
66144;SHT31;52947;50.842;6.084;2023-02-27T16:02:41;4.34;61.63
66144;SHT31;52947;50.842;6.084;2023-02-27T16:05:15;4.18;61.73
66144;SHT31;52947;50.842;6.084;2023-02-27T16:07:44;4.11;62.77
66144;SHT31;52947;50.842;6.084;2023-02-27T16:10:17;4.01;63.11
66144;SHT31;52947;50.842;6.084;2023-02-27T16:12:47;3.97;63.66
66144;SHT31;52947;50.842;6.084;2023-02-27T16:17:58;3.80;61.70
66144;SHT31;52947;50.842;6.084;2023-02-27T16:20:37;3.72;61.86
66144;SHT31;52947;50.842;6.084;2023-02-27T16:23:12;3.70;62.61
66144;SHT31;52947;50.842;6.084;2023-02-27T16:25:57;3.65;62.99
66144;SHT31;52947;50.842;6.084;2023-02-27T16:28:29;3.59;63.71
66144;SHT31;52947;50.842;6.084;2023-02-27T16:30:57;3.59;64.25